Time;durP1;ratioP1;P1;durP2;ratioP2;P2;SDS_P1;SDS_P2;PMS_P1;PMS_P2;Temp;Humidity;BMP_temperature;BMP_pressure;BME280_temperature;BME280_humidity;BME280_pressure;Samples;Min_cycle;Max_cycle;Signal;HPM_P1;HPM_P2
2022/09/16 00:00:57;;;;;;;21.63;4.95;;;20.80;92.80;;;;;;5035424;28;20079;-63
2022/09/16 00:03:23;;;;;;;27.90;5.85;;;20.80;92.80;;;;;;5017713;28;20037;-64
2022/09/16 00:05:50;;;;;;;18.98;4.97;;;20.70;92.70;;;;;;5033578;28;20084;-63
2022/09/16 00:08:16;;;;;;;22.58;5.32;;;20.70;92.70;;;;;;5032784;28;20591;-66
2022/09/16 00:10:42;;;;;;;16.33;4.20;;;20.80;92.70;;;;;;5030265;28;20021;-64
2022/09/16 00:13:08;;;;;;;25.88;5.40;;;20.70;92.70;;;;;;5018272;28;20033;-63
2022/09/16 00:15:33;;;;;;;20.98;5.40;;;20.70;92.70;;;;;;5037185;28;20021;-62
2022/09/16 00:17:59;;;;;;;26.17;5.30;;;20.70;92.70;;;;;;5034833;28;20033;-66
2022/09/16 00:20:25;;;;;;;16.20;4.95;;;20.70;92.60;;;;;;5037191;28;20052;-64
2022/09/16 00:22:50;;;;;;;17.50;4.57;;;20.70;92.60;;;;;;5035264;28;20542;-63
2022/09/16 00:25:16;;;;;;;21.58;4.57;;;20.70;92.60;;;;;;5031265;28;20592;-65
2022/09/16 00:27:41;;;;;;;21.23;4.47;;;20.70;92.60;;;;;;5033194;28;20029;-63
2022/09/16 00:30:07;;;;;;;19.95;4.95;;;20.70;92.60;;;;;;5035078;28;21057;-64
2022/09/16 00:32:33;;;;;;;17.63;3.75;;;20.70;92.60;;;;;;5018901;28;20033;-63
2022/09/16 00:34:58;;;;;;;21.60;4.30;;;20.70;92.50;;;;;;5037709;28;21004;-63
2022/09/16 00:37:24;;;;;;;21.80;5.15;;;20.60;92.50;;;;;;5032749;28;20043;-63
2022/09/16 00:39:49;;;;;;;13.60;3.83;;;20.60;92.50;;;;;;5035843;28;20033;-65
2022/09/16 00:42:16;;;;;;;12.40;4.63;;;20.60;92.50;;;;;;5016613;28;20048;-64
2022/09/16 00:44:50;;;;;;;15.20;4.10;;;20.60;92.50;;;;;;5021365;28;20053;-64
2022/09/16 00:47:26;;;;;;;10.98;3.92;;;20.60;92.50;;;;;;5031094;28;20028;-63
2022/09/16 00:49:52;;;;;;;12.13;4.00;;;20.60;92.50;;;;;;5016670;28;20439;-63
2022/09/16 00:52:17;;;;;;;17.35;3.95;;;20.60;92.50;;;;;;5033445;28;20087;-63
2022/09/16 00:54:43;;;;;;;13.70;4.10;;;20.60;92.50;;;;;;5013661;28;20044;-63
2022/09/16 00:57:09;;;;;;;14.05;4.80;;;20.60;92.40;;;;;;5036934;28;20046;-65
2022/09/16 00:59:40;;;;;;;11.65;4.10;;;20.60;92.40;;;;;;5036177;28;20653;-65
2022/09/16 01:02:10;;;;;;;16.05;5.07;;;20.50;92.40;;;;;;5032278;28;20496;-64
2022/09/16 01:04:39;;;;;;;17.25;4.63;;;20.50;92.40;;;;;;5032749;28;20037;-64
2022/09/16 01:07:04;;;;;;;9.82;3.92;;;20.50;92.40;;;;;;5030112;28;20021;-64
2022/09/16 01:09:30;;;;;;;16.30;4.10;;;20.50;92.50;;;;;;5034969;28;20398;-62
2022/09/16 01:11:55;;;;;;;13.15;3.85;;;20.50;92.50;;;;;;5014384;28;20527;-63
2022/09/16 01:17:43;;;;;;;9.88;4.05;;;20.20;92.50;;;;;;5035731;28;20052;-63
2022/09/16 01:20:35;;;;;;;13.23;4.18;;;20.40;92.60;;;;;;5034835;28;20039;-65
2022/09/16 01:23:20;;;;;;;12.27;4.35;;;20.40;92.60;;;;;;5032253;28;20029;-63
2022/09/16 01:26:11;;;;;;;13.77;3.60;;;20.40;92.60;;;;;;5033548;28;20040;-64
2022/09/16 01:28:39;;;;;;;11.98;3.65;;;20.30;92.60;;;;;;5034084;28;20052;-64
2022/09/16 01:31:17;;;;;;;16.42;3.72;;;20.30;92.50;;;;;;5034315;28;20030;-63
2022/09/16 01:33:58;;;;;;;10.48;3.25;;;20.40;92.50;;;;;;5029345;28;20033;-65
2022/09/16 01:36:23;;;;;;;9.77;4.05;;;20.30;92.50;;;;;;5031925;28;20021;-64
2022/09/16 01:39:12;;;;;;;10.55;3.25;;;20.30;92.50;;;;;;5036350;28;20109;-64
2022/09/16 01:41:47;;;;;;;8.20;3.38;;;20.30;92.50;;;;;;5035507;28;20441;-63
2022/09/16 01:44:25;;;;;;;12.00;3.72;;;20.30;92.50;;;;;;5034378;28;20045;-64
2022/09/16 01:47:04;;;;;;;8.82;3.45;;;20.30;92.50;;;;;;5032774;28;20027;-64
2022/09/16 01:49:32;;;;;;;7.72;3.10;;;20.30;92.40;;;;;;5034367;28;20112;-64
2022/09/16 01:52:25;;;;;;;7.53;2.90;;;20.20;92.40;;;;;;5032972;28;20060;-63
2022/09/16 01:54:55;;;;;;;6.80;3.35;;;20.20;92.40;;;;;;5029581;28;20044;-64
2022/09/16 01:57:31;;;;;;;10.38;3.85;;;20.20;92.40;;;;;;5016677;28;20025;-64
2022/09/16 01:59:57;;;;;;;;;;;20.20;92.40;;;;;;5036309;28;20240;-63
2022/09/16 02:02:30;;;;;;;7.95;3.17;;;20.20;92.40;;;;;;5033926;28;20439;-64
2022/09/16 02:04:56;;;;;;;7.90;2.90;;;20.10;92.30;;;;;;5034569;28;20544;-64
2022/09/16 02:07:26;;;;;;;7.57;3.28;;;20.10;92.40;;;;;;5030031;28;20041;-64
2022/09/16 02:09:54;;;;;;;9.63;3.30;;;20.10;92.40;;;;;;5015908;28;21444;-64
2022/09/16 02:12:23;;;;;;;7.50;3.30;;;20.10;92.40;;;;;;5030569;28;20040;-63
2022/09/16 02:14:49;;;;;;;5.15;2.92;;;20.10;92.30;;;;;;5028457;28;20516;-64
2022/09/16 02:17:16;;;;;;;5.30;3.17;;;20.10;92.30;;;;;;5017010;28;20037;-64
2022/09/16 02:19:51;;;;;;;5.97;3.45;;;20.10;92.30;;;;;;5018242;28;20025;-64
2022/09/16 02:22:33;;;;;;;9.25;4.05;;;20.10;92.40;;;;;;5028929;28;20033;-65
2022/09/16 02:24:59;;;;;;;6.60;4.32;;;20.00;92.30;;;;;;5020002;28;20025;-65
2022/09/16 02:27:25;;;;;;;6.13;3.75;;;20.00;92.30;;;;;;5017243;28;20021;-64
2022/09/16 02:29:53;;;;;;;10.38;3.92;;;20.00;92.30;;;;;;5016575;28;20112;-63
2022/09/16 02:32:19;;;;;;;5.43;3.58;;;20.00;92.40;;;;;;5013581;28;20175;-65
2022/09/16 02:34:46;;;;;;;7.70;4.10;;;20.00;92.30;;;;;;5014534;28;20591;-63
2022/09/16 02:37:17;;;;;;;12.02;3.97;;;19.90;92.30;;;;;;5016938;28;20053;-63
2022/09/16 02:39:45;;;;;;;10.20;4.00;;;20.00;92.40;;;;;;5030656;28;20029;-63
2022/09/16 02:42:10;;;;;;;10.18;3.47;;;19.90;92.40;;;;;;5033530;28;20039;-63
2022/09/16 02:44:36;;;;;;;10.00;3.90;;;19.90;92.40;;;;;;5031518;28;20040;-63
2022/09/16 02:47:12;;;;;;;10.38;3.30;;;20.00;92.50;;;;;;5033225;28;20049;-64
2022/09/16 02:50:09;;;;;;;6.45;3.95;;;19.90;92.50;;;;;;5033146;28;20033;-64
2022/09/16 02:52:44;;;;;;;7.43;3.65;;;19.90;92.50;;;;;;5031381;28;20083;-65
2022/09/16 02:55:18;;;;;;;7.57;3.30;;;19.90;92.50;;;;;;5032795;28;20032;-63
2022/09/16 02:57:43;;;;;;;9.73;3.88;;;19.90;92.60;;;;;;5016523;28;20119;-64
2022/09/16 03:00:09;;;;;;;7.43;3.80;;;19.90;92.50;;;;;;5033872;28;20111;-64
2022/09/16 03:02:35;;;;;;;6.82;3.78;;;19.90;92.50;;;;;;5029902;28;20185;-64
2022/09/16 03:05:00;;;;;;;7.13;3.50;;;19.90;92.40;;;;;;5032175;28;20473;-63
2022/09/16 03:07:26;;;;;;;5.82;4.10;;;19.90;92.40;;;;;;5033677;28;20036;-63
2022/09/16 03:09:51;;;;;;;5.50;3.85;;;19.90;92.70;;;;;;5038093;28;20113;-63
2022/09/16 03:12:39;;;;;;;5.68;3.28;;;19.90;92.40;;;;;;5036361;28;20528;-63
2022/09/16 03:15:26;;;;;;;6.32;3.92;;;19.90;92.50;;;;;;5038105;28;20029;-64
2022/09/16 03:17:57;;;;;;;5.10;3.33;;;19.90;92.50;;;;;;5037162;28;20264;-63
2022/09/16 03:20:28;;;;;;;7.28;3.35;;;19.90;92.50;;;;;;5037764;28;20183;-64
2022/09/16 03:23:13;;;;;;;6.22;3.30;;;19.80;92.70;;;;;;5036599;28;20099;-63
2022/09/16 03:25:57;;;;;;;4.72;3.13;;;19.80;92.50;;;;;;5038057;28;20033;-64
2022/09/16 03:28:45;;;;;;;15.45;3.80;;;19.80;92.50;;;;;;5033905;28;20532;-66
2022/09/16 03:31:18;;;;;;;5.68;3.58;;;19.80;92.50;;;;;;5015758;28;20041;-64
2022/09/16 03:34:05;;;;;;;6.15;3.40;;;19.80;92.60;;;;;;5020908;28;20029;-63
2022/09/16 03:36:33;;;;;;;5.63;3.53;;;19.80;92.60;;;;;;5020941;28;20025;-64
2022/09/16 03:39:00;;;;;;;9.20;4.30;;;19.80;92.50;;;;;;5021450;28;20024;-64
2022/09/16 03:41:27;;;;;;;8.38;3.38;;;19.80;92.50;;;;;;5018551;28;20134;-64
2022/09/16 03:43:53;;;;;;;7.30;3.80;;;19.70;92.50;;;;;;5035922;28;20106;-65
2022/09/16 03:46:19;;;;;;;6.90;4.00;;;19.80;92.50;;;;;;5036057;28;20149;-64
2022/09/16 03:48:44;;;;;;;8.85;4.95;;;19.80;92.50;;;;;;5022745;28;20547;-64
2022/09/16 03:51:11;;;;;;;7.18;5.40;;;19.70;92.40;;;;;;5034570;28;20493;-64
2022/09/16 03:53:36;;;;;;;8.27;5.07;;;19.70;92.70;;;;;;5035183;28;20041;-64
2022/09/16 03:56:02;;;;;;;11.43;5.10;;;19.70;92.40;;;;;;5035668;28;20440;-64
2022/09/16 03:58:27;;;;;;;7.85;4.28;;;19.70;92.50;;;;;;5036549;28;20048;-64
2022/09/16 04:00:53;;;;;;;9.63;4.70;;;19.70;92.50;;;;;;5022375;28;20083;-62
2022/09/16 04:03:18;;;;;;;7.13;3.95;;;19.70;92.40;;;;;;5036323;28;20128;-66
2022/09/16 04:05:44;;;;;;;7.65;4.13;;;19.70;92.40;;;;;;5033052;28;20145;-64
2022/09/16 04:08:09;;;;;;;8.00;4.07;;;19.70;92.40;;;;;;5035046;28;20072;-63
2022/09/16 04:10:35;;;;;;;5.47;4.00;;;19.70;92.40;;;;;;5017885;28;20036;-64
2022/09/16 04:13:00;;;;;;;4.57;3.65;;;19.70;92.30;;;;;;5035067;28;20112;-63
2022/09/16 04:15:26;;;;;;;10.82;4.45;;;19.70;92.30;;;;;;5032989;28;20071;-64
2022/09/16 04:17:51;;;;;;;38.05;7.63;;;19.60;92.30;;;;;;5032814;28;20688;-65
2022/09/16 04:20:17;;;;;;;36.50;7.43;;;19.70;92.30;;;;;;5036810;28;20021;-64
